Terminal Aerodrome Forecast
Issued by NWS

Home | Current Version | Previous Version | Text Only | Print | Product List | Glossary On
Versions: 1 2 3 4 5 6 7 8 9 10 11 12 13 14 15 16 17 18 19 20 21 22 23 24 25 26 27 28 29
000
FTUS41 KOKX 301726
TAFHPN
TAF
KHPN 301726Z 3018/0118 16013G20KT P6SM SCT050 BKN120
     FM302200 15010KT P6SM SCT050 BKN120
     FM010000 15006KT P6SM SCT010 BKN050 BKN100
     FM010400 14004KT 5SM BR VCSH FEW006 BKN010
      TEMPO 0108/0112 -SHRA
     FM011200 23004KT 6SM -SHRA BR BKN010 BKN020
     FM011500 24007KT P6SM SCT025 BKN040
      AMD NOT SKED=

USA.gov is the U.S. government's official web portal to all federal, state and local government web resources and services.